Time;durP1;ratioP1;P1;durP2;ratioP2;P2;SDS_P1;SDS_P2;PMS_P1;PMS_P2;Temp;Humidity;BMP_temperature;BMP_pressure;BME280_temperature;BME280_humidity;BME280_pressure;Samples;Min_cycle;Max_cycle;Signal;HPM_P1;HPM_P2
2022/07/07 00:01:50;;;;;;;6.10;2.22;;;19.40;99.90;;;;;;4994798;28;20360;-68
2022/07/07 00:04:16;;;;;;;4.85;1.67;;;19.40;99.90;;;;;;4994154;28;20041;-65
2022/07/07 00:06:42;;;;;;;6.55;1.70;;;19.40;99.90;;;;;;4994992;28;20084;-64
2022/07/07 00:09:08;;;;;;;11.13;1.58;;;19.40;99.90;;;;;;4994580;28;20015;-65
2022/07/07 00:11:34;;;;;;;7.38;1.77;;;19.30;99.90;;;;;;4994508;28;20025;-65
2022/07/07 00:13:59;;;;;;;8.15;2.28;;;19.30;99.90;;;;;;4994433;28;20018;-67
2022/07/07 00:16:25;;;;;;;12.63;1.70;;;19.30;99.90;;;;;;4990021;28;20030;-65
2022/07/07 00:18:51;;;;;;;7.15;1.63;;;19.30;99.90;;;;;;4993804;28;20037;-65
2022/07/07 00:21:17;;;;;;;8.57;1.83;;;19.20;99.90;;;;;;4994140;28;20067;-65
2022/07/07 00:23:44;;;;;;;5.50;1.63;;;19.10;99.90;;;;;;4994237;28;20449;-65
2022/07/07 00:26:10;;;;;;;4.18;1.52;;;19.00;99.90;;;;;;4993776;28;20022;-64
2022/07/07 00:28:36;;;;;;;3.72;1.70;;;18.90;99.90;;;;;;4995029;28;20098;-64
2022/07/07 00:31:02;;;;;;;7.47;1.80;;;18.80;99.90;;;;;;4991589;28;20365;-64
2022/07/07 00:33:27;;;;;;;6.53;2.10;;;18.60;99.90;;;;;;4984881;28;20105;-66
2022/07/07 00:35:53;;;;;;;3.50;1.58;;;18.50;99.90;;;;;;4995431;28;20465;-68
2022/07/07 00:38:19;;;;;;;6.50;1.73;;;18.30;99.90;;;;;;4995254;28;20037;-64
2022/07/07 00:40:53;;;;;;;6.53;1.83;;;18.20;99.90;;;;;;4995762;28;20114;-64
2022/07/07 00:43:18;;;;;;;6.82;1.75;;;18.10;99.90;;;;;;4994292;28;20445;-65
2022/07/07 00:45:48;;;;;;;6.47;1.67;;;18.00;99.90;;;;;;4995113;28;20089;-65
2022/07/07 00:48:14;;;;;;;7.07;1.88;;;18.00;99.90;;;;;;4995406;28;20042;-64
2022/07/07 00:50:42;;;;;;;7.15;1.90;;;17.90;99.90;;;;;;4976569;28;20370;-64
2022/07/07 00:53:08;;;;;;;7.68;1.92;;;17.90;99.90;;;;;;5006915;28;20105;-65
2022/07/07 00:55:33;;;;;;;4.78;1.58;;;17.90;99.90;;;;;;5006992;28;20121;-64
2022/07/07 00:57:59;;;;;;;5.47;1.90;;;17.80;99.90;;;;;;4995325;28;20050;-64
2022/07/07 01:00:25;;;;;;;7.53;1.98;;;17.80;99.90;;;;;;4977366;28;20066;-67
2022/07/07 01:02:50;;;;;;;7.13;2.15;;;17.80;99.90;;;;;;4975284;28;20102;-65
2022/07/07 01:05:16;;;;;;;3.80;1.77;;;17.80;99.90;;;;;;4975350;28;20027;-65
2022/07/07 01:07:43;;;;;;;6.03;1.95;;;17.80;99.90;;;;;;4975247;28;20026;-67
2022/07/07 01:10:08;;;;;;;5.50;1.83;;;17.80;99.90;;;;;;4975539;28;20061;-64
2022/07/07 01:12:41;;;;;;;5.40;2.10;;;17.80;99.90;;;;;;4992471;28;20057;-64
2022/07/07 01:15:07;;;;;;;;;;;17.80;99.90;;;;;;4991904;28;20097;-64
2022/07/07 01:17:33;;;;;;;3.78;1.98;;;17.80;99.90;;;;;;4983746;28;19902;-65
2022/07/07 01:20:00;;;;;;;3.75;2.33;;;17.80;99.90;;;;;;4975146;28;20428;-64
2022/07/07 01:22:31;;;;;;;8.25;2.33;;;17.80;99.90;;;;;;4975044;28;20030;-63
2022/07/07 01:24:57;;;;;;;6.28;2.50;;;17.80;99.90;;;;;;4975133;28;20453;-64
2022/07/07 01:27:22;;;;;;;4.60;2.20;;;17.80;99.90;;;;;;4975257;28;20046;-63
2022/07/07 01:29:50;;;;;;;7.35;2.60;;;17.80;99.90;;;;;;4974541;28;20031;-66
2022/07/07 01:32:16;;;;;;;7.88;2.45;;;17.80;99.90;;;;;;4975480;28;20026;-64
2022/07/07 01:34:43;;;;;;;10.93;2.50;;;17.80;99.90;;;;;;4974457;28;20465;-65
2022/07/07 01:37:09;;;;;;;12.68;2.60;;;17.90;99.90;;;;;;4974754;28;20031;-68
2022/07/07 01:39:36;;;;;;;9.23;2.40;;;17.90;99.90;;;;;;4974793;28;20038;-65
2022/07/07 01:42:03;;;;;;;9.70;2.50;;;17.90;99.90;;;;;;4974726;28;20015;-64
2022/07/07 01:44:36;;;;;;;8.10;2.50;;;17.90;99.90;;;;;;4974161;28;20158;-64
2022/07/07 01:47:02;;;;;;;7.15;2.35;;;17.90;99.90;;;;;;4981453;28;20033;-64
2022/07/07 01:49:29;;;;;;;5.13;2.10;;;17.90;99.90;;;;;;4994174;28;20030;-64
2022/07/07 01:51:56;;;;;;;8.30;2.20;;;17.90;99.90;;;;;;4985280;28;20089;-64
2022/07/07 01:54:21;;;;;;;14.55;2.60;;;18.00;99.90;;;;;;4976079;28;20062;-64
2022/07/07 01:56:47;;;;;;;10.82;2.40;;;18.00;99.90;;;;;;4993514;28;20050;-64
2022/07/07 01:59:13;;;;;;;14.18;2.80;;;18.00;99.90;;;;;;4993736;28;20077;-64
2022/07/07 02:01:39;;;;;;;8.00;2.65;;;18.10;99.90;;;;;;4994694;28;20131;-64
2022/07/07 02:04:05;;;;;;;7.47;2.22;;;18.10;99.90;;;;;;5004222;28;20449;-63
2022/07/07 02:06:31;;;;;;;9.00;2.40;;;18.10;99.90;;;;;;4991088;28;20040;-64
2022/07/07 02:08:58;;;;;;;5.13;1.88;;;18.10;99.90;;;;;;4974310;28;20057;-64
2022/07/07 02:11:23;;;;;;;8.52;2.10;;;18.20;99.90;;;;;;4974280;28;20062;-65
2022/07/07 02:13:51;;;;;;;8.52;1.75;;;18.20;99.90;;;;;;4973957;28;20029;-65
2022/07/07 02:16:19;;;;;;;6.95;1.52;;;18.10;99.90;;;;;;4974317;28;20119;-68
2022/07/07 02:18:46;;;;;;;4.85;1.60;;;18.10;99.90;;;;;;4974426;28;20026;-65
2022/07/07 02:21:13;;;;;;;13.82;1.52;;;18.00;99.90;;;;;;4974057;28;20026;-64
2022/07/07 02:23:41;;;;;;;8.13;1.60;;;18.00;99.90;;;;;;4974457;28;20469;-64
2022/07/07 02:26:07;;;;;;;7.28;1.55;;;17.90;99.90;;;;;;4974305;28;20077;-64
2022/07/07 02:28:33;;;;;;;8.40;1.42;;;17.90;99.90;;;;;;4974185;28;20026;-66
2022/07/07 02:30:59;;;;;;;10.88;2.05;;;17.80;99.90;;;;;;4973595;28;20023;-65
2022/07/07 02:33:25;;;;;;;12.50;2.03;;;17.80;99.90;;;;;;4973717;28;20038;-66
2022/07/07 02:35:52;;;;;;;6.00;1.55;;;17.70;99.90;;;;;;4973700;28;20034;-66
2022/07/07 02:38:18;;;;;;;6.30;1.67;;;17.70;99.90;;;;;;4973886;28;20110;-64
2022/07/07 02:40:46;;;;;;;9.60;1.88;;;17.70;99.90;;;;;;4974734;28;20373;-63
2022/07/07 02:43:12;;;;;;;9.85;1.60;;;17.70;99.90;;;;;;4973664;28;20105;-64
2022/07/07 02:45:42;;;;;;;10.02;1.52;;;17.70;99.90;;;;;;4979328;28;20081;-64
2022/07/07 02:48:12;;;;;;;3.85;1.23;;;17.60;99.90;;;;;;4974416;28;20505;-63
2022/07/07 02:50:38;;;;;;;6.07;1.40;;;17.60;99.90;;;;;;5005192;28;20496;-68
2022/07/07 02:53:04;;;;;;;9.52;2.28;;;17.60;99.90;;;;;;4973393;28;20417;-64
2022/07/07 02:55:30;;;;;;;7.70;1.92;;;17.60;99.90;;;;;;4973570;28;20076;-63
2022/07/07 02:57:57;;;;;;;6.72;1.73;;;17.60;99.90;;;;;;4992386;28;20053;-66
2022/07/07 03:00:23;;;;;;;9.50;1.98;;;17.50;99.90;;;;;;4992861;28;20117;-64
2022/07/07 03:02:48;;;;;;;6.90;1.50;;;17.50;99.90;;;;;;4993176;28;20464;-64
2022/07/07 03:05:14;;;;;;;10.63;1.92;;;17.50;99.90;;;;;;4991903;28;20022;-64
2022/07/07 03:07:39;;;;;;;9.00;2.10;;;17.50;99.90;;;;;;4992643;28;20018;-67
2022/07/07 03:10:06;;;;;;;12.57;2.03;;;17.50;99.90;;;;;;4992071;28;20476;-66
2022/07/07 03:12:32;;;;;;;8.30;1.98;;;17.40;99.90;;;;;;4991702;28;20330;-64
2022/07/07 03:14:58;;;;;;;8.63;1.90;;;17.40;99.90;;;;;;4990487;28;20084;-65
2022/07/07 03:17:24;;;;;;;7.38;1.92;;;17.40;99.90;;;;;;4995824;28;20018;-65
2022/07/07 03:19:49;;;;;;;8.25;2.33;;;17.40;99.90;;;;;;4995641;28;20113;-64
2022/07/07 03:22:15;;;;;;;6.32;1.20;;;17.40;99.90;;;;;;4996619;28;20054;-64
2022/07/07 03:24:41;;;;;;;5.00;1.35;;;17.40;99.90;;;;;;4997162;28;20126;-64
2022/07/07 03:27:07;;;;;;;5.80;1.10;;;17.40;99.90;;;;;;4995449;28;20403;-64
2022/07/07 03:29:33;;;;;;;5.45;0.90;;;17.40;99.90;;;;;;4995531;28;20022;-66
2022/07/07 03:31:59;;;;;;;3.83;0.98;;;17.50;99.90;;;;;;4995623;28;20032;-65
2022/07/07 03:34:25;;;;;;;4.93;0.80;;;17.50;99.90;;;;;;4995900;28;20034;-64
2022/07/07 03:36:50;;;;;;;7.97;0.90;;;17.50;99.90;;;;;;4996303;28;20034;-64
2022/07/07 03:39:19;;;;;;;7.72;1.05;;;17.50;99.90;;;;;;4996903;28;20025;-65
2022/07/07 03:41:45;;;;;;;9.43;1.30;;;17.40;99.90;;;;;;4996341;28;20018;-63
2022/07/07 03:44:10;;;;;;;7.60;1.55;;;17.50;99.90;;;;;;4995615;28;20050;-65
2022/07/07 03:46:36;;;;;;;12.77;2.10;;;17.40;99.90;;;;;;4995008;28;20515;-64
2022/07/07 03:49:02;;;;;;;7.97;1.95;;;17.40;99.90;;;;;;4994993;28;20089;-63
2022/07/07 03:51:27;;;;;;;6.63;1.35;;;17.40;99.90;;;;;;4995085;28;20023;-64
2022/07/07 03:53:53;;;;;;;12.00;1.77;;;17.40;99.90;;;;;;4995030;28;20097;-66
2022/07/07 03:56:18;;;;;;;8.98;1.20;;;17.30;99.90;;;;;;4995142;28;20101;-65
2022/07/07 03:58:44;;;;;;;14.48;1.92;;;17.30;99.90;;;;;;4995025;28;20346;-64
2022/07/07 04:01:09;;;;;;;6.60;1.10;;;17.30;99.90;;;;;;4994997;28;20130;-64
2022/07/07 04:03:35;;;;;;;12.90;1.50;;;17.20;99.90;;;;;;4994502;28;20058;-65
2022/07/07 04:06:00;;;;;;;10.65;1.48;;;17.30;99.90;;;;;;4993747;28;20471;-66
2022/07/07 04:08:26;;;;;;;10.98;1.20;;;17.20;99.90;;;;;;4994570;28;20025;-63
2022/07/07 04:10:52;;;;;;;7.43;1.60;;;17.30;99.90;;;;;;4994624;28;20022;-64
2022/07/07 04:13:17;;;;;;;6.53;1.33;;;17.20;99.90;;;;;;4993328;28;20019;-64
2022/07/07 04:15:43;;;;;;;11.73;1.80;;;17.30;99.90;;;;;;4994293;28;20048;-68
2022/07/07 04:18:09;;;;;;;7.47;1.38;;;17.30;99.90;;;;;;4994749;28;20401;-66
2022/07/07 04:20:35;;;;;;;10.35;1.38;;;17.30;99.90;;;;;;4994174;28;20076;-65
2022/07/07 04:23:00;;;;;;;13.35;1.60;;;17.30;99.90;;;;;;4993998;28;20496;-64
2022/07/07 04:25:26;;;;;;;11.68;2.38;;;17.40;99.90;;;;;;4994470;28;20018;-63
2022/07/07 04:27:51;;;;;;;8.93;1.27;;;17.30;99.90;;;;;;4994157;28;20356;-67
2022/07/07 04:30:17;;;;;;;11.07;1.73;;;17.40;99.90;;;;;;4994393;28;20221;-66
2022/07/07 04:32:43;;;;;;;11.27;1.58;;;17.40;99.90;;;;;;4994463;28;20101;-65
2022/07/07 04:35:09;;;;;;;7.55;1.60;;;17.40;99.90;;;;;;4994077;28;20113;-63
2022/07/07 04:37:35;;;;;;;14.43;1.95;;;17.40;99.90;;;;;;4992917;28;20455;-64
2022/07/07 04:40:02;;;;;;;7.07;1.63;;;17.40;99.90;;;;;;4994181;28;20018;-65
2022/07/07 04:42:28;;;;;;;13.55;1.98;;;17.40;99.90;;;;;;4994165;28;20445;-64
2022/07/07 04:44:54;;;;;;;8.35;2.20;;;17.40;99.90;;;;;;4992572;28;20065;-64
2022/07/07 04:47:19;;;;;;;11.05;1.92;;;17.40;99.90;;;;;;4993308;28;20041;-64
2022/07/07 04:49:45;;;;;;;7.53;1.50;;;17.50;99.90;;;;;;4994110;28;20025;-64
2022/07/07 04:52:10;;;;;;;8.38;1.45;;;17.50;99.90;;;;;;4992473;28;20023;-64
2022/07/07 04:54:36;;;;;;;8.60;1.40;;;17.60;99.90;;;;;;4993920;28;20030;-68
2022/07/07 04:57:02;;;;;;;13.65;1.55;;;17.60;99.90;;;;;;4993862;28;20094;-64
2022/07/07 04:59:27;;;;;;;5.45;1.20;;;17.60;99.90;;;;;;4994126;28;20026;-64
2022/07/07 05:01:53;;;;;;;3.05;1.00;;;17.60;99.90;;;;;;4994008;28;20025;-64
2022/07/07 05:04:18;;;;;;;5.75;1.63;;;17.40;99.90;;;;;;4994059;28;20030;-64
2022/07/07 05:06:44;;;;;;;11.07;1.40;;;17.30;99.90;;;;;;4993874;28;20077;-65
2022/07/07 05:09:09;;;;;;;10.15;1.65;;;17.20;99.90;;;;;;4993820;28;20029;-63
2022/07/07 05:11:36;;;;;;;10.63;1.75;;;17.20;99.90;;;;;;4993669;28;20041;-63
2022/07/07 05:14:02;;;;;;;11.55;1.60;;;17.20;99.90;;;;;;4993671;28;20073;-65
2022/07/07 05:16:29;;;;;;;9.10;1.42;;;17.30;99.90;;;;;;4993763;28;20127;-65
2022/07/07 05:18:54;;;;;;;11.00;1.33;;;17.40;99.90;;;;;;4993585;28;20540;-62
2022/07/07 05:21:20;;;;;;;12.80;1.75;;;17.60;99.90;;;;;;4993855;28;20101;-63
2022/07/07 05:23:45;;;;;;;7.53;1.50;;;17.70;99.90;;;;;;4992487;28;20368;-65
2022/07/07 05:26:12;;;;;;;6.20;1.48;;;17.80;99.90;;;;;;4993523;28;20014;-66
2022/07/07 05:28:41;;;;;;;8.60;1.10;;;17.70;99.90;;;;;;4993586;28;20018;-64
2022/07/07 05:31:08;;;;;;;9.27;1.15;;;17.70;99.90;;;;;;4993429;28;20161;-67
2022/07/07 05:33:33;;;;;;;5.03;1.17;;;17.70;99.90;;;;;;4992041;28;20019;-63
2022/07/07 05:35:59;;;;;;;7.57;1.10;;;17.90;99.90;;;;;;4991881;28;20041;-64
2022/07/07 05:38:24;;;;;;;6.45;1.52;;;18.10;99.90;;;;;;4993312;28;20023;-64
2022/07/07 05:40:50;;;;;;;9.43;1.27;;;18.20;99.90;;;;;;4992578;28;20018;-65
2022/07/07 05:43:15;;;;;;;7.07;1.23;;;18.20;99.90;;;;;;4993191;28;20093;-64
2022/07/07 05:45:41;;;;;;;8.07;1.50;;;18.10;99.90;;;;;;4993367;28;20034;-63
2022/07/07 05:48:07;;;;;;;7.30;1.35;;;18.10;99.90;;;;;;4993033;28;20441;-65
2022/07/07 05:50:32;;;;;;;5.78;1.27;;;18.10;99.90;;;;;;4992979;28;20349;-63
2022/07/07 05:52:58;;;;;;;10.30;1.70;;;18.10;99.90;;;;;;4993256;28;20022;-64
2022/07/07 05:55:23;;;;;;;9.65;1.70;;;18.20;99.90;;;;;;4992695;28;20031;-63
2022/07/07 05:57:49;;;;;;;8.90;1.52;;;18.20;99.90;;;;;;4993393;28;20076;-69
2022/07/07 06:00:15;;;;;;;9.90;1.63;;;18.30;99.90;;;;;;4991616;28;20014;-65
2022/07/07 06:02:40;;;;;;;7.15;1.45;;;18.30;99.90;;;;;;4992793;28;20018;-65
2022/07/07 06:05:06;;;;;;;7.05;1.30;;;18.20;99.90;;;;;;4992751;28;20452;-65
2022/07/07 06:07:32;;;;;;;6.57;1.25;;;18.20;99.90;;;;;;4992870;28;20030;-64
2022/07/07 06:09:57;;;;;;;9.95;1.60;;;18.10;99.90;;;;;;4992893;28;20029;-63
2022/07/07 06:12:23;;;;;;;7.78;1.50;;;18.10;99.90;;;;;;4993132;28;20069;-64
2022/07/07 06:14:49;;;;;;;11.82;1.40;;;18.10;99.90;;;;;;4992762;28;20453;-68
2022/07/07 06:17:15;;;;;;;6.63;1.52;;;18.10;99.90;;;;;;4993659;28;20018;-64
2022/07/07 06:19:40;;;;;;;10.65;1.80;;;18.30;99.90;;;;;;4994033;28;20030;-68
2022/07/07 06:22:06;;;;;;;10.18;2.15;;;18.40;99.90;;;;;;4994171;28;20453;-65
2022/07/07 06:24:31;;;;;;;9.38;2.10;;;18.40;99.90;;;;;;4994229;28;20115;-64
2022/07/07 06:26:57;;;;;;;10.20;1.75;;;18.20;99.90;;;;;;4994066;28;20023;-63
2022/07/07 06:29:23;;;;;;;8.18;1.67;;;18.00;99.90;;;;;;4994202;28;20037;-64
2022/07/07 06:31:48;;;;;;;12.30;1.52;;;17.90;99.90;;;;;;4992387;28;20026;-67
2022/07/07 06:34:14;;;;;;;3.35;1.00;;;17.70;99.90;;;;;;4993657;28;20366;-63
2022/07/07 06:36:39;;;;;;;7.68;1.35;;;17.70;99.90;;;;;;4993396;28;20031;-64
2022/07/07 06:39:05;;;;;;;4.72;1.33;;;17.70;99.90;;;;;;4993933;28;20026;-67
2022/07/07 06:41:38;;;;;;;8.00;1.40;;;17.90;99.90;;;;;;4994287;28;20029;-66
2022/07/07 06:44:04;;;;;;;10.00;1.60;;;18.00;99.90;;;;;;4993440;28;20061;-65
2022/07/07 06:46:30;;;;;;;8.48;1.75;;;18.30;99.90;;;;;;4989676;28;20022;-64
2022/07/07 06:48:56;;;;;;;8.25;1.70;;;18.50;99.90;;;;;;5003026;28;20033;-68
2022/07/07 06:51:22;;;;;;;7.85;2.03;;;18.60;99.90;;;;;;5016113;28;20110;-66
2022/07/07 06:53:48;;;;;;;6.00;1.52;;;18.90;99.90;;;;;;4995663;28;20022;-65
2022/07/07 06:56:13;;;;;;;7.85;2.20;;;19.10;99.90;;;;;;4997041;28;20065;-66
2022/07/07 06:58:39;;;;;;;7.20;1.42;;;19.10;99.90;;;;;;4997560;28;20105;-63
2022/07/07 07:01:05;;;;;;;8.13;1.40;;;19.20;99.90;;;;;;4996980;28;20416;-65
2022/07/07 07:03:31;;;;;;;12.80;1.83;;;19.40;99.90;;;;;;4997610;28;20090;-66
2022/07/07 07:05:56;;;;;;;6.20;1.52;;;19.70;99.90;;;;;;4997503;28;20060;-67
2022/07/07 07:08:22;;;;;;;5.38;1.08;;;20.10;99.90;;;;;;4997316;28;20025;-66
2022/07/07 07:10:48;;;;;;;8.25;1.25;;;20.20;99.90;;;;;;4997671;28;20026;-64
2022/07/07 07:13:13;;;;;;;6.38;1.20;;;20.70;99.90;;;;;;4997062;28;20033;-66
2022/07/07 07:15:39;;;;;;;11.93;3.33;;;20.90;99.90;;;;;;4997072;28;20053;-67
2022/07/07 07:18:06;;;;;;;10.88;2.28;;;20.70;99.90;;;;;;4997263;28;20019;-65
2022/07/07 07:20:32;;;;;;;8.15;2.20;;;20.60;99.90;;;;;;4996406;28;20018;-63
2022/07/07 07:22:58;;;;;;;9.65;3.15;;;20.90;99.90;;;;;;4997228;28;20038;-65
2022/07/07 07:25:23;;;;;;;9.10;2.30;;;20.90;99.90;;;;;;4996921;28;20030;-64
2022/07/07 07:27:49;;;;;;;8.63;2.78;;;20.60;99.90;;;;;;4997486;28;20342;-68
2022/07/07 07:30:14;;;;;;;7.40;2.40;;;20.40;99.90;;;;;;4995786;28;20025;-65
2022/07/07 07:32:40;;;;;;;8.68;2.55;;;20.30;99.90;;;;;;4997091;28;20022;-66
2022/07/07 07:35:06;;;;;;;4.75;1.65;;;20.20;99.90;;;;;;4995669;28;20117;-66
2022/07/07 07:37:32;;;;;;;4.22;1.45;;;20.10;99.90;;;;;;4996796;28;20023;-64
2022/07/07 07:39:57;;;;;;;9.75;2.10;;;20.10;99.90;;;;;;4996861;28;20244;-65
2022/07/07 07:42:23;;;;;;;6.80;1.83;;;20.00;99.90;;;;;;4996411;28;20033;-66
2022/07/07 07:47:33;;;;;;;7.63;1.55;;;19.80;99.90;;;;;;4996711;28;20041;-64
2022/07/07 07:49:59;;;;;;;8.63;1.40;;;19.60;99.90;;;;;;4996867;28;20019;-64
2022/07/07 07:52:25;;;;;;;6.13;1.20;;;19.40;99.90;;;;;;4995296;28;20026;-63
2022/07/07 07:54:50;;;;;;;10.05;1.55;;;19.30;99.90;;;;;;4996282;28;20441;-65
2022/07/07 07:57:16;;;;;;;5.50;2.08;;;19.40;99.90;;;;;;4996318;28;20026;-63
2022/07/07 07:59:41;;;;;;;7.47;1.73;;;19.80;99.90;;;;;;4996679;28;20023;-65
2022/07/07 08:02:07;;;;;;;8.20;2.13;;;20.30;99.90;;;;;;4995294;28;20030;-64
2022/07/07 08:04:33;;;;;;;11.57;2.95;;;20.90;99.90;;;;;;4996602;28;20113;-63
2022/07/07 08:06:58;;;;;;;12.70;2.72;;;21.20;99.90;;;;;;4994044;28;20114;-64
2022/07/07 08:09:24;;;;;;;9.88;2.17;;;21.40;99.90;;;;;;4999509;28;20109;-67
2022/07/07 08:11:49;;;;;;;9.98;2.13;;;21.50;99.90;;;;;;4995747;28;20033;-65
2022/07/07 08:14:16;;;;;;;5.15;1.50;;;21.40;99.90;;;;;;4995782;28;20034;-64
2022/07/07 08:16:42;;;;;;;5.90;1.80;;;21.10;99.90;;;;;;4995879;28;20376;-65
2022/07/07 08:19:07;;;;;;;10.27;2.10;;;20.80;99.90;;;;;;4996251;28;20022;-65
2022/07/07 08:21:33;;;;;;;10.60;2.17;;;20.90;99.90;;;;;;4996109;28;20025;-66
2022/07/07 08:23:59;;;;;;;10.18;2.30;;;21.30;99.90;;;;;;4994846;28;20018;-65
2022/07/07 08:26:25;;;;;;;7.32;1.92;;;21.40;99.90;;;;;;4996116;28;20037;-64
2022/07/07 08:28:52;;;;;;;5.22;1.52;;;21.80;99.90;;;;;;4990878;28;20360;-68
2022/07/07 08:31:17;;;;;;;9.27;2.00;;;21.80;99.90;;;;;;4994421;28;20049;-66
2022/07/07 08:33:43;;;;;;;11.63;2.38;;;21.40;99.90;;;;;;4995853;28;20061;-63
2022/07/07 08:36:08;;;;;;;7.38;1.90;;;21.00;99.90;;;;;;4995724;28;20062;-66
2022/07/07 08:38:34;;;;;;;11.77;2.22;;;20.80;99.90;;;;;;4995982;28;20037;-63
2022/07/07 08:41:00;;;;;;;8.07;1.75;;;20.70;99.90;;;;;;4994310;28;20026;-65
2022/07/07 08:43:26;;;;;;;13.15;2.63;;;20.50;99.90;;;;;;4995376;28;20027;-67
2022/07/07 08:45:52;;;;;;;10.50;1.98;;;20.30;99.90;;;;;;4995503;28;20030;-65
2022/07/07 08:48:20;;;;;;;5.10;1.63;;;20.30;99.90;;;;;;4991338;28;20107;-65
2022/07/07 08:50:46;;;;;;;10.02;2.42;;;20.30;99.90;;;;;;4984201;28;20383;-68
2022/07/07 08:53:12;;;;;;;9.13;2.45;;;20.20;99.90;;;;;;4998973;28;20360;-66
2022/07/07 08:55:41;;;;;;;8.45;2.42;;;20.20;99.90;;;;;;4997867;28;20080;-67
2022/07/07 08:58:09;;;;;;;7.72;2.85;;;20.20;99.90;;;;;;5014998;28;20045;-67
2022/07/07 09:00:34;;;;;;;6.00;2.00;;;20.20;99.90;;;;;;4997911;28;20030;-65
2022/07/07 09:03:07;;;;;;;10.35;2.90;;;20.20;99.90;;;;;;5007142;28;20052;-65
2022/07/07 09:05:37;;;;;;;9.38;2.00;;;20.40;99.90;;;;;;4995513;28;20029;-66
2022/07/07 09:08:19;;;;;;;8.32;1.50;;;20.60;99.90;;;;;;4995080;28;20022;-67
2022/07/07 09:10:45;;;;;;;6.45;1.77;;;20.70;99.90;;;;;;4995041;28;20077;-68
2022/07/07 09:13:31;;;;;;;7.80;1.65;;;20.80;99.90;;;;;;4995008;28;20026;-64
2022/07/07 09:16:18;;;;;;;11.45;2.10;;;20.80;99.90;;;;;;4994330;28;20117;-66
2022/07/07 09:18:45;;;;;;;5.95;2.35;;;21.20;99.90;;;;;;4994504;28;20045;-66
2022/07/07 09:21:31;;;;;;;7.10;1.50;;;21.50;99.90;;;;;;4994802;28;20019;-64
2022/07/07 09:24:02;;;;;;;13.23;1.60;;;21.70;99.90;;;;;;5011611;28;20483;-66
2022/07/07 09:26:38;;;;;;;13.95;1.88;;;21.90;99.90;;;;;;5011508;28;20368;-68
2022/07/07 09:29:05;;;;;;;4.10;1.17;;;22.00;99.90;;;;;;5014843;28;20048;-66
2022/07/07 09:31:54;;;;;;;8.68;1.30;;;21.90;99.90;;;;;;5010330;28;20435;-67
2022/07/07 09:34:22;;;;;;;13.00;1.88;;;21.80;99.90;;;;;;4994961;28;20034;-64
2022/07/07 09:39:43;;;;;;;10.40;1.80;;;21.70;99.90;;;;;;4994279;28;20045;-69
2022/07/07 09:42:29;;;;;;;8.35;1.73;;;21.60;99.90;;;;;;4994998;28;20036;-64
2022/07/07 09:44:57;;;;;;;15.07;2.50;;;21.40;99.90;;;;;;4994533;28;20050;-64
2022/07/07 09:47:24;;;;;;;9.18;2.13;;;21.30;99.90;;;;;;5002867;28;20094;-66
2022/07/07 09:50:11;;;;;;;13.30;1.95;;;21.20;99.90;;;;;;5013541;28;20027;-64
2022/07/07 09:52:45;;;;;;;10.75;1.98;;;21.30;99.90;;;;;;4975325;28;20039;-66
2022/07/07 09:55:11;;;;;;;5.97;1.63;;;21.40;99.90;;;;;;4976939;28;20027;-65
2022/07/07 09:57:39;;;;;;;11.15;2.03;;;21.30;99.90;;;;;;5013927;28;20049;-65
2022/07/07 10:00:05;;;;;;;6.47;1.38;;;21.10;99.90;;;;;;5013959;28;20139;-64
2022/07/07 10:02:31;;;;;;;8.55;1.70;;;20.90;99.90;;;;;;5013247;28;20049;-68
2022/07/07 10:05:00;;;;;;;10.15;2.08;;;21.00;99.90;;;;;;5012421;28;20476;-68
2022/07/07 10:07:32;;;;;;;10.80;2.03;;;21.30;99.90;;;;;;5009062;28;20022;-65
2022/07/07 10:10:04;;;;;;;12.15;1.98;;;21.40;99.90;;;;;;5002442;28;20379;-66
2022/07/07 10:12:31;;;;;;;8.98;1.65;;;21.40;99.90;;;;;;5013435;28;20021;-63
2022/07/07 10:15:03;;;;;;;5.18;1.55;;;21.20;99.90;;;;;;5004636;28;20463;-64
2022/07/07 10:17:30;;;;;;;8.10;1.90;;;20.90;99.90;;;;;;4994462;28;20113;-64
2022/07/07 10:19:56;;;;;;;8.95;1.88;;;20.70;99.90;;;;;;5001909;28;20022;-64
2022/07/07 10:22:27;;;;;;;7.85;1.70;;;20.60;99.90;;;;;;5001112;28;20105;-67
2022/07/07 10:24:54;;;;;;;13.05;1.90;;;20.60;99.90;;;;;;5000491;28;20022;-66
2022/07/07 10:27:23;;;;;;;6.95;1.60;;;20.00;99.90;;;;;;4996719;28;20380;-64
2022/07/07 10:29:53;;;;;;;9.23;1.48;;;19.60;99.90;;;;;;4997416;28;20076;-65
2022/07/07 10:32:40;;;;;;;10.90;1.90;;;19.30;99.90;;;;;;4994370;28;20419;-67
2022/07/07 10:35:09;;;;;;;12.30;2.83;;;19.10;99.90;;;;;;5001260;28;20030;-63
2022/07/07 10:37:49;;;;;;;9.10;1.90;;;19.00;99.90;;;;;;5013393;28;20103;-65
2022/07/07 10:40:26;;;;;;;8.05;2.15;;;18.80;99.90;;;;;;4997016;28;20022;-64
2022/07/07 10:43:10;;;;;;;14.30;3.08;;;18.60;99.90;;;;;;4992943;28;20369;-65
2022/07/07 10:45:45;;;;;;;17.65;2.85;;;18.60;99.90;;;;;;5003877;28;20088;-65
2022/07/07 10:48:33;;;;;;;15.27;3.00;;;18.60;99.90;;;;;;5013298;28;20061;-63
2022/07/07 10:51:21;;;;;;;12.52;2.08;;;18.60;99.90;;;;;;5000871;28;20022;-64
2022/07/07 10:54:03;;;;;;;14.55;2.03;;;18.70;99.90;;;;;;4993914;28;20022;-65
2022/07/07 10:56:53;;;;;;;14.00;1.70;;;18.80;99.90;;;;;;4998675;28;20034;-65
2022/07/07 10:59:22;;;;;;;10.30;1.80;;;19.20;99.90;;;;;;4989569;28;20030;-66
2022/07/07 11:02:04;;;;;;;12.95;2.00;;;19.40;99.90;;;;;;4986760;28;20110;-64
2022/07/07 11:04:41;;;;;;;8.70;2.00;;;19.60;99.90;;;;;;5005219;28;20052;-65
2022/07/07 11:07:18;;;;;;;14.98;2.70;;;19.80;99.90;;;;;;4972858;28;20034;-63
2022/07/07 11:09:57;;;;;;;10.77;1.95;;;20.00;99.90;;;;;;4974104;28;20019;-67
2022/07/07 11:12:42;;;;;;;5.72;1.45;;;20.20;99.90;;;;;;4974051;28;20338;-64
2022/07/07 11:15:30;;;;;;;12.18;1.40;;;20.40;99.90;;;;;;4978418;28;20026;-64
2022/07/07 11:17:56;;;;;;;6.97;1.73;;;20.80;99.90;;;;;;4974103;28;20023;-64
2022/07/07 11:20:26;;;;;;;7.90;1.10;;;21.10;99.10;;;;;;4981019;28;20118;-64
2022/07/07 11:22:54;;;;;;;4.00;1.50;;;21.40;98.70;;;;;;5010619;28;20018;-65
2022/07/07 11:25:22;;;;;;;3.88;1.00;;;21.50;98.30;;;;;;5009475;28;20550;-64
2022/07/07 11:27:49;;;;;;;8.93;1.63;;;21.60;97.50;;;;;;4994379;28;20042;-65
2022/07/07 11:30:16;;;;;;;12.27;2.10;;;21.70;98.00;;;;;;4994212;28;20096;-66
2022/07/07 11:32:43;;;;;;;11.25;1.73;;;21.90;97.30;;;;;;5012745;28;20030;-65
2022/07/07 11:35:11;;;;;;;10.13;2.15;;;22.20;97.20;;;;;;5012439;28;20037;-65
2022/07/07 11:37:42;;;;;;;15.50;2.80;;;22.50;97.30;;;;;;5014316;28;20026;-65
2022/07/07 11:40:14;;;;;;;15.75;2.80;;;22.60;97.40;;;;;;5006240;28;20022;-66
2022/07/07 11:42:41;;;;;;;16.17;2.53;;;22.60;98.10;;;;;;5016362;28;20488;-66
2022/07/07 11:45:25;;;;;;;13.73;2.80;;;22.70;97.50;;;;;;5003949;28;20144;-66
2022/07/07 11:47:52;;;;;;;15.25;3.35;;;22.70;97.50;;;;;;5007133;28;20474;-64
2022/07/07 11:50:18;;;;;;;13.00;3.00;;;22.70;96.30;;;;;;4995161;28;20023;-68
2022/07/07 11:52:56;;;;;;;13.27;2.22;;;22.50;95.90;;;;;;4995693;28;20014;-62
2022/07/07 11:55:23;;;;;;;11.43;2.67;;;22.30;96.20;;;;;;4996433;28;20038;-65
2022/07/07 11:57:59;;;;;;;14.70;3.08;;;22.10;96.70;;;;;;4996119;28;20058;-66
2022/07/07 12:00:27;;;;;;;12.75;3.67;;;22.10;96.40;;;;;;4996302;28;20056;-67
2022/07/07 12:02:56;;;;;;;9.18;2.40;;;22.20;95.90;;;;;;4996459;28;20076;-65
2022/07/07 12:05:24;;;;;;;10.57;2.45;;;22.30;95.20;;;;;;5003083;28;20049;-66
2022/07/07 12:07:58;;;;;;;9.63;2.35;;;22.40;94.30;;;;;;5001067;28;20038;-64
2022/07/07 12:10:25;;;;;;;11.43;3.00;;;22.60;93.30;;;;;;4994924;28;20026;-66
2022/07/07 12:13:09;;;;;;;7.70;2.30;;;22.80;93.20;;;;;;4995871;28;20114;-66
2022/07/07 12:15:40;;;;;;;11.65;2.30;;;23.40;93.10;;;;;;4996105;28;20112;-65
2022/07/07 12:18:08;;;;;;;9.20;1.50;;;24.40;91.80;;;;;;4996033;28;20084;-66
2022/07/07 12:20:34;;;;;;;13.10;3.50;;;24.70;90.50;;;;;;4995024;28;20086;-67
2022/07/07 12:23:02;;;;;;;8.50;2.28;;;24.70;90.80;;;;;;4994895;28;20057;-65
2022/07/07 12:25:31;;;;;;;9.95;2.42;;;24.90;90.60;;;;;;4993680;28;20022;-68
2022/07/07 12:28:07;;;;;;;10.10;2.17;;;24.80;90.10;;;;;;4995707;28;20022;-66
2022/07/07 12:30:36;;;;;;;11.50;2.35;;;24.30;90.50;;;;;;4996370;28;20375;-64
2022/07/07 12:33:03;;;;;;;8.93;1.80;;;23.80;90.60;;;;;;4995651;28;20033;-64
2022/07/07 12:35:31;;;;;;;10.20;2.40;;;23.40;91.10;;;;;;4994635;28;20038;-65
2022/07/07 12:38:00;;;;;;;9.65;2.13;;;23.10;91.60;;;;;;4994958;28;20025;-66
2022/07/07 12:40:27;;;;;;;7.15;1.75;;;22.80;92.00;;;;;;4995725;28;20046;-68
2022/07/07 12:42:53;;;;;;;12.98;2.80;;;22.60;92.10;;;;;;4995258;28;20084;-65
2022/07/07 12:45:19;;;;;;;9.40;1.73;;;22.50;91.90;;;;;;4995790;28;20133;-64
2022/07/07 12:47:47;;;;;;;11.23;2.47;;;22.60;91.30;;;;;;4994023;28;20018;-64
2022/07/07 12:50:13;;;;;;;10.30;1.58;;;22.60;92.10;;;;;;4995460;28;20022;-64
2022/07/07 12:52:39;;;;;;;7.70;1.50;;;22.80;91.10;;;;;;4995638;28;20437;-63